createdAt,value
2023-04-19T00:00:12.363Z,102858.03
2023-04-19T00:02:42.754Z,102875.38
2023-04-19T00:05:15.395Z,102882.13
2023-04-19T00:07:45.020Z,102873.53
2023-04-19T00:10:14.507Z,102864.22
2023-04-19T00:12:43.999Z,102866.47
2023-04-19T00:15:13.842Z,102868.44
2023-04-19T00:17:43.453Z,102852.75
2023-04-19T00:20:16.036Z,102840.28
2023-04-19T00:22:45.595Z,102845.81
2023-04-19T00:25:15.074Z,102831.25
2023-04-19T00:27:44.571Z,102835.78
2023-04-19T00:30:15.270Z,102820.16
2023-04-19T00:32:44.877Z,102789.91
2023-04-19T00:35:17.388Z,102789.91
2023-04-19T00:37:46.903Z,102780.44
2023-04-19T00:40:16.438Z,102781.81
2023-04-19T00:42:45.924Z,102779.84
2023-04-19T00:45:15.546Z,102776.84
2023-04-19T00:47:45.107Z,102763.00
2023-04-19T00:50:17.340Z,102729.91
2023-04-19T00:52:46.922Z,102736.50
2023-04-19T00:55:16.912Z,102729.00
2023-04-19T00:57:47.101Z,102739.53
2023-04-19T01:00:17.466Z,102749.44
2023-04-19T01:02:47.090Z,102738.94
2023-04-19T01:05:19.467Z,102743.28
2023-04-19T01:07:49.033Z,102732.91
2023-04-19T01:10:18.681Z,102719.38
2023-04-19T01:12:48.212Z,102714.88
2023-04-19T01:15:17.659Z,102711.84
2023-04-19T01:17:47.207Z,102708.53
2023-04-19T01:20:19.324Z,102715.00
2023-04-19T01:22:51.377Z,102708.25
2023-04-19T01:25:20.880Z,102709.88
2023-04-19T01:27:50.378Z,102715.16
2023-04-19T01:30:19.883Z,102716.19
2023-04-19T01:32:49.499Z,102715.91
2023-04-19T01:35:19.212Z,102705.84
2023-04-19T01:37:53.309Z,102713.03
2023-04-19T01:40:23.518Z,102721.63
2023-04-19T01:42:53.067Z,102715.78
2023-04-19T01:45:23.094Z,102715.63
2023-04-19T01:47:52.765Z,102696.50
2023-04-19T01:50:22.342Z,102706.72
2023-04-19T01:52:54.384Z,102711.84
2023-04-19T01:55:23.902Z,102700.28
2023-04-19T01:57:54.860Z,102690.03
2023-04-19T02:00:24.481Z,102685.53
2023-04-19T02:02:54.132Z,102676.34
2023-04-19T02:05:23.896Z,102679.94
2023-04-19T02:07:55.998Z,102679.06
2023-04-19T02:10:25.749Z,102668.25
2023-04-19T02:12:55.205Z,102673.34
2023-04-19T02:15:24.928Z,102676.94
2023-04-19T02:17:54.430Z,102681.13
2023-04-19T02:20:24.646Z,102691.94
2023-04-19T02:22:56.718Z,102692.81
2023-04-19T02:25:26.323Z,102688.94
2023-04-19T02:27:55.892Z,102692.09
2023-04-19T02:30:25.730Z,102713.56
2023-04-19T02:32:55.354Z,102711.16
2023-04-19T02:35:25.135Z,102707.19
2023-04-19T02:37:57.245Z,102712.59
2023-04-19T02:40:27.320Z,102726.25
2023-04-19T02:42:56.857Z,102731.31
2023-04-19T02:45:26.373Z,102739.09
2023-04-19T02:47:55.927Z,102736.06
2023-04-19T02:50:25.520Z,102751.22
2023-04-19T02:52:57.689Z,102750.91
2023-04-19T02:55:27.336Z,102751.22
2023-04-19T02:57:56.831Z,102742.97
2023-04-19T03:00:26.515Z,102743.72
2023-04-19T03:02:56.299Z,102732.94
2023-04-19T03:05:26.139Z,102735.31
2023-04-19T03:07:58.198Z,102718.91
2023-04-19T03:10:27.790Z,102723.03
2023-04-19T03:12:57.318Z,102710.97
2023-04-19T03:15:27.029Z,102710.69
2023-04-19T03:17:56.571Z,102710.97
2023-04-19T03:20:26.314Z,102720.00
2023-04-19T03:22:58.391Z,102705.75
2023-04-19T03:25:27.896Z,102714.50
2023-04-19T03:27:57.411Z,102710.00
2023-04-19T03:30:26.876Z,102700.22
2023-04-19T03:32:56.426Z,102703.56
2023-04-19T03:35:26.531Z,102694.06
2023-04-19T03:37:58.569Z,102685.75
2023-04-19T03:40:28.061Z,102692.06
2023-04-19T03:42:57.562Z,102728.94
2023-04-19T03:45:27.423Z,102748.59
2023-04-19T03:47:56.985Z,102743.31
2023-04-19T03:50:26.514Z,102745.13
2023-04-19T03:52:58.609Z,102753.06
2023-04-19T03:55:28.082Z,102747.38
2023-04-19T03:57:57.559Z,102734.91
2023-04-19T04:00:27.698Z,102726.50
2023-04-19T04:02:57.432Z,102720.53
2023-04-19T04:05:27.153Z,102720.69
2023-04-19T04:07:59.314Z,102705.19
2023-04-19T04:10:28.921Z,102691.97
2023-04-19T04:12:58.659Z,102683.41
2023-04-19T04:15:28.183Z,102676.50
2023-04-19T04:17:57.775Z,102662.53
2023-04-19T04:20:27.374Z,102660.16
2023-04-19T04:22:59.403Z,102651.69
2023-04-19T04:25:29.068Z,102641.03
2023-04-19T04:27:58.743Z,102656.25
2023-04-19T04:30:28.870Z,102646.22
2023-04-19T04:32:59.184Z,102620.94
2023-04-19T04:35:30.704Z,102610.75
2023-04-19T04:38:11.058Z,102607.47
2023-04-19T04:40:47.853Z,102599.19
2023-04-19T04:43:17.356Z,102589.72
2023-04-19T04:45:47.044Z,102578.78
2023-04-19T04:48:16.873Z,102575.31
2023-04-19T04:50:46.957Z,102568.44
2023-04-19T04:53:19.064Z,102561.53
2023-04-19T04:55:48.589Z,102553.16
2023-04-19T04:58:19.865Z,102543.97
2023-04-19T05:00:50.067Z,102536.31
2023-04-19T05:03:20.202Z,102539.75
2023-04-19T05:05:49.780Z,102528.34
2023-04-19T05:08:22.015Z,102524.75
2023-04-19T05:10:51.556Z,102512.75
2023-04-19T05:13:21.124Z,102511.41
2023-04-19T05:15:50.626Z,102505.53
2023-04-19T05:18:20.180Z,102504.19
2023-04-19T05:20:49.685Z,102487.06
2023-04-19T05:23:21.794Z,102486.47
2023-04-19T05:25:51.346Z,102484.63
2023-04-19T05:28:20.904Z,102483.41
2023-04-19T05:30:50.420Z,102483.56
2023-04-19T05:33:19.955Z,102476.47
2023-04-19T05:35:49.414Z,102474.06
2023-04-19T05:38:21.617Z,102471.94
2023-04-19T05:40:51.118Z,102474.38
2023-04-19T05:43:20.646Z,102462.97
2023-04-19T05:45:50.210Z,102461.00
2023-04-19T05:48:19.769Z,102460.38
2023-04-19T05:50:49.315Z,102462.09
2023-04-19T05:53:21.440Z,102465.66
2023-04-19T05:55:52.340Z,102475.88
2023-04-19T05:58:21.878Z,102479.56
2023-04-19T06:00:51.594Z,102490.75
2023-04-19T06:03:21.235Z,102497.72
2023-04-19T06:05:50.928Z,102497.56
2023-04-19T06:08:23.062Z,102496.50
2023-04-19T06:10:56.981Z,102508.16
2023-04-19T06:13:31.508Z,102508.41
2023-04-19T06:16:01.123Z,102496.84
2023-04-19T06:18:30.659Z,102507.03
2023-04-19T06:21:00.194Z,102519.50
2023-04-19T06:23:32.331Z,102515.66
2023-04-19T06:26:01.915Z,102522.50
2023-04-19T06:28:31.500Z,102526.53
2023-04-19T06:31:01.968Z,102531.72
2023-04-19T06:33:31.493Z,102534.41
2023-04-19T06:36:01.298Z,102536.16
2023-04-19T06:38:33.381Z,102542.34
2023-04-19T06:41:02.892Z,102539.53
2023-04-19T06:43:32.399Z,102553.81
2023-04-19T06:46:02.143Z,102556.84
2023-04-19T06:48:31.800Z,102564.47
2023-04-19T06:51:01.310Z,102549.28
2023-04-19T06:53:33.473Z,102533.34
2023-04-19T06:56:04.481Z,102547.22
2023-04-19T06:58:35.339Z,102591.06
2023-04-19T07:01:06.622Z,102610.34
2023-04-19T07:03:36.979Z,102621.41
2023-04-19T07:06:06.928Z,102638.22
2023-04-19T07:08:49.201Z,102618.13
2023-04-19T07:11:21.060Z,102648.41
2023-04-19T07:13:51.414Z,102645.00
2023-04-19T07:16:20.918Z,102668.97
2023-04-19T07:18:50.484Z,102677.84
2023-04-19T07:21:19.946Z,102675.94
2023-04-19T07:23:52.278Z,102696.00
2023-04-19T07:26:21.807Z,102693.94
2023-04-19T07:28:51.399Z,102704.75
2023-04-19T07:31:21.478Z,102687.00
2023-04-19T07:33:51.073Z,102693.91
2023-04-19T07:36:20.901Z,102701.88
2023-04-19T07:38:53.018Z,102702.66
2023-04-19T07:41:22.613Z,102706.91
2023-04-19T07:43:52.099Z,102698.91
2023-04-19T07:46:21.756Z,102701.59
2023-04-19T07:48:51.327Z,102702.22
2023-04-19T07:51:20.934Z,102698.25
2023-04-19T07:53:53.264Z,102706.19
2023-04-19T07:56:22.765Z,102703.09
2023-04-19T07:59:04.170Z,102700.66
2023-04-19T08:01:37.138Z,102704.38
2023-04-19T08:04:07.154Z,102705.25
2023-04-19T08:06:38.034Z,102701.56
2023-04-19T08:09:10.224Z,102707.84
2023-04-19T08:11:39.812Z,102706.03
2023-04-19T08:14:18.596Z,102696.78
2023-04-19T08:17:22.446Z,102694.94
2023-04-19T08:19:49.601Z,102695.34
2023-04-19T08:22:19.351Z,102695.81
2023-04-19T08:24:52.444Z,102685.47
2023-04-19T08:27:22.704Z,102697.81
2023-04-19T08:29:52.305Z,102685.09
2023-04-19T08:32:21.832Z,102687.19
2023-04-19T08:34:51.354Z,102676.47
2023-04-19T08:37:21.013Z,102674.66
2023-04-19T08:39:53.346Z,102663.22
2023-04-19T08:42:33.189Z,102652.56
2023-04-19T08:47:52.479Z,102635.38
2023-04-19T08:50:34.422Z,102641.78
2023-04-19T08:53:23.861Z,102620.81
2023-04-19T08:56:12.962Z,102627.44
2023-04-19T09:01:33.078Z,102623.28
2023-04-19T09:04:21.609Z,102617.44
2023-04-19T09:06:55.301Z,102611.81
2023-04-19T09:12:01.582Z,102592.06
2023-04-19T09:14:31.876Z,102596.81
2023-04-19T09:17:18.565Z,102602.06
2023-04-19T09:19:49.717Z,102593.00
2023-04-19T09:22:19.559Z,102597.84
2023-04-19T09:27:29.120Z,102579.00
2023-04-19T09:29:59.557Z,102575.31
2023-04-19T09:32:29.370Z,102555.03
2023-04-19T09:35:00.186Z,102559.44
2023-04-19T09:37:51.328Z,102545.91
2023-04-19T09:40:25.814Z,102543.47
2023-04-19T09:45:31.397Z,102528.06
2023-04-19T09:48:04.928Z,102517.13
2023-04-19T09:50:46.786Z,102506.25
2023-04-19T09:53:25.125Z,102513.34
2023-04-19T09:56:01.468Z,102492.66
2023-04-19T09:58:49.019Z,102498.50
2023-04-19T10:01:23.078Z,102480.31
2023-04-19T10:03:53.428Z,102491.16
2023-04-19T10:08:57.432Z,102485.13
2023-04-19T10:11:30.622Z,102488.50
2023-04-19T10:14:03.455Z,102482.75
2023-04-19T10:16:33.449Z,102474.16
2023-04-19T10:19:03.157Z,102462.75
2023-04-19T10:21:32.939Z,102462.25
2023-04-19T10:24:02.813Z,102450.94
2023-04-19T10:26:32.363Z,102448.47
2023-04-19T10:29:04.456Z,102439.50
2023-04-19T10:31:34.027Z,102467.03
2023-04-19T10:34:03.566Z,102448.81
2023-04-19T10:36:33.852Z,102448.28
2023-04-19T10:39:04.111Z,102429.63
2023-04-19T10:42:00.766Z,102431.53
2023-04-19T10:44:32.897Z,102417.19
2023-04-19T10:47:02.784Z,102413.16
2023-04-19T10:49:32.325Z,102416.31
2023-04-19T10:52:01.868Z,102423.59
2023-04-19T10:54:32.606Z,102418.63
2023-04-19T10:57:06.612Z,102386.19
2023-04-19T10:59:40.490Z,102403.63
2023-04-19T11:02:32.831Z,102401.19
2023-04-19T11:05:04.532Z,102387.53
2023-04-19T11:07:44.949Z,102390.66
2023-04-19T11:10:14.566Z,102382.06
2023-04-19T11:12:47.639Z,102396.38
2023-04-19T11:15:19.787Z,102354.63
2023-04-19T11:18:04.977Z,102330.91
2023-04-19T11:20:41.404Z,102341.34
2023-04-19T11:23:19.685Z,102337.53
2023-04-19T11:25:49.427Z,102346.88
2023-04-19T11:28:21.787Z,102343.22
2023-04-19T11:30:54.010Z,102316.25
2023-04-19T11:33:25.931Z,102364.66
2023-04-19T11:35:55.464Z,102369.06
2023-04-19T11:38:25.032Z,102335.19
2023-04-19T11:41:01.957Z,102335.22
2023-04-19T11:43:35.748Z,102357.66
2023-04-19T11:46:11.867Z,102355.91
2023-04-19T11:48:41.689Z,102349.38
2023-04-19T11:51:11.716Z,102334.69
2023-04-19T11:53:43.117Z,102346.06
2023-04-19T11:56:12.918Z,102329.16
2023-04-19T11:58:45.194Z,102341.09
2023-04-19T12:01:19.736Z,102345.38
2023-04-19T12:03:51.386Z,102335.22
2023-04-19T12:06:22.429Z,102342.31
2023-04-19T12:08:53.041Z,102331.88
2023-04-19T12:11:24.650Z,102293.56
2023-04-19T12:14:11.674Z,102305.28
2023-04-19T12:16:45.148Z,102321.69
2023-04-19T12:19:16.311Z,102340.63
2023-04-19T12:21:46.414Z,102327.84
2023-04-19T12:24:18.450Z,102328.44
2023-04-19T12:26:57.238Z,102302.31
2023-04-19T12:29:27.113Z,102299.13
2023-04-19T12:31:59.257Z,102294.41
2023-04-19T12:34:28.767Z,102315.94
2023-04-19T12:36:58.383Z,102290.88
2023-04-19T12:39:29.038Z,102280.84
2023-04-19T12:41:58.770Z,102296.91
2023-04-19T12:44:28.470Z,102288.72
2023-04-19T12:47:00.571Z,102299.25
2023-04-19T12:49:30.088Z,102282.84
2023-04-19T12:51:59.588Z,102281.75
2023-04-19T12:54:29.135Z,102281.56
2023-04-19T12:56:58.629Z,102273.34
2023-04-19T12:59:28.156Z,102287.56
2023-04-19T13:02:00.548Z,102283.44
2023-04-19T13:04:30.483Z,102296.13
2023-04-19T13:07:00.348Z,102278.13
2023-04-19T13:09:30.587Z,102305.56
2023-04-19T13:12:00.135Z,102284.81
2023-04-19T13:14:30.334Z,102294.28
2023-04-19T13:17:02.512Z,102283.91
2023-04-19T13:19:32.212Z,102267.34
2023-04-19T13:22:01.824Z,102250.22
2023-04-19T13:24:31.356Z,102249.03
2023-04-19T13:27:02.110Z,102244.81
2023-04-19T13:29:31.720Z,102239.13
2023-04-19T13:32:07.463Z,102241.25
2023-04-19T13:34:37.620Z,102234.63
2023-04-19T13:37:07.155Z,102228.28
2023-04-19T13:39:36.882Z,102217.06
2023-04-19T13:42:06.667Z,102229.78
2023-04-19T13:44:36.420Z,102228.78
2023-04-19T13:47:08.765Z,102226.78
2023-04-19T13:49:38.262Z,102226.38
2023-04-19T13:52:07.807Z,102229.88
2023-04-19T13:54:37.276Z,102226.31
2023-04-19T13:57:07.035Z,102213.09
2023-04-19T13:59:36.539Z,102222.66
2023-04-19T14:02:08.803Z,102229.97
2023-04-19T14:04:38.432Z,102221.22
2023-04-19T14:07:08.201Z,102239.84
2023-04-19T14:09:37.853Z,102212.59
2023-04-19T14:12:09.240Z,102236.63
2023-04-19T14:14:38.720Z,102223.84
2023-04-19T14:17:10.833Z,102219.03
2023-04-19T14:19:40.336Z,102222.69
2023-04-19T14:22:09.806Z,102231.53
2023-04-19T14:24:39.311Z,102224.09
2023-04-19T14:27:11.049Z,102219.84
2023-04-19T14:29:41.215Z,102222.44
2023-04-19T14:32:25.030Z,102201.91
2023-04-19T14:34:56.401Z,102171.88
2023-04-19T14:37:26.977Z,102208.75
2023-04-19T14:39:56.545Z,102177.28
2023-04-19T14:42:26.160Z,102157.94
2023-04-19T14:44:55.818Z,102166.88
2023-04-19T14:47:27.977Z,102156.13
2023-04-19T14:49:57.679Z,102168.31
2023-04-19T14:52:27.323Z,102151.72
2023-04-19T14:54:57.781Z,102162.94
2023-04-19T14:57:27.373Z,102162.50
2023-04-19T15:00:01.268Z,102157.16
2023-04-19T15:02:33.855Z,102156.63
2023-04-19T15:05:03.764Z,102141.81
2023-04-19T15:07:33.549Z,102152.16
2023-04-19T15:10:03.069Z,102146.28
2023-04-19T15:12:32.555Z,102135.91
2023-04-19T15:15:02.128Z,102139.09
2023-04-19T15:17:34.265Z,102129.78
2023-04-19T15:20:03.905Z,102141.44
2023-04-19T15:22:33.393Z,102129.19
2023-04-19T15:25:03.768Z,102160.38
2023-04-19T15:27:33.388Z,102166.72
2023-04-19T15:30:03.459Z,102163.78
2023-04-19T15:32:37.014Z,102162.69
2023-04-19T15:35:07.233Z,102163.84
2023-04-19T15:37:36.776Z,102161.34
2023-04-19T15:40:09.801Z,102164.28
2023-04-19T15:42:39.269Z,102172.50
2023-04-19T15:45:10.118Z,102175.75
2023-04-19T15:47:42.298Z,102180.19
2023-04-19T15:50:12.316Z,102196.22
2023-04-19T15:52:41.847Z,102175.19
2023-04-19T15:55:11.796Z,102204.81
2023-04-19T15:57:41.245Z,102196.25
2023-04-19T16:00:12.093Z,102201.44
2023-04-19T16:02:44.903Z,102221.44
2023-04-19T16:05:14.535Z,102211.94
2023-04-19T16:07:45.465Z,102215.50
2023-04-19T16:10:15.985Z,102216.16
2023-04-19T16:12:46.204Z,102221.31
2023-04-19T16:15:15.756Z,102221.78
2023-04-19T16:17:47.876Z,102231.31
2023-04-19T16:20:17.449Z,102248.63
2023-04-19T16:22:46.945Z,102251.00
2023-04-19T16:25:16.975Z,102242.22
2023-04-19T16:27:48.524Z,102234.91
2023-04-19T16:30:19.209Z,102238.28
2023-04-19T16:32:51.290Z,102231.16
2023-04-19T16:35:20.899Z,102239.28
2023-04-19T16:37:50.382Z,102227.47
2023-04-19T16:40:19.922Z,102246.16
2023-04-19T16:42:49.441Z,102233.97
2023-04-19T16:45:19.987Z,102240.47
2023-04-19T16:47:52.965Z,102231.09
2023-04-19T16:50:22.696Z,102244.22
2023-04-19T16:52:52.168Z,102241.00
2023-04-19T16:55:21.781Z,102244.78
2023-04-19T16:57:51.384Z,102241.41
2023-04-19T17:00:22.053Z,102247.06
2023-04-19T17:02:54.761Z,102249.13
2023-04-19T17:05:24.467Z,102238.50
2023-04-19T17:07:56.601Z,102247.66
2023-04-19T17:10:26.841Z,102232.75
2023-04-19T17:12:57.046Z,102233.69
2023-04-19T17:15:26.900Z,102239.72
2023-04-19T17:17:59.052Z,102238.53
2023-04-19T17:20:28.656Z,102251.50
2023-04-19T17:22:58.128Z,102239.41
2023-04-19T17:25:27.640Z,102244.16
2023-04-19T17:27:57.796Z,102246.72
2023-04-19T17:30:27.395Z,102238.94
2023-04-19T17:32:59.558Z,102244.31
2023-04-19T17:35:29.339Z,102244.56
2023-04-19T17:37:58.815Z,102257.69
2023-04-19T17:40:29.589Z,102255.22
2023-04-19T17:42:59.379Z,102246.16
2023-04-19T17:45:28.886Z,102253.25
2023-04-19T17:48:02.179Z,102264.09
2023-04-19T17:50:31.741Z,102259.81
2023-04-19T17:53:01.246Z,102263.34
2023-04-19T17:55:30.713Z,102264.00
2023-04-19T17:58:00.230Z,102264.00
2023-04-19T18:00:29.740Z,102271.72
2023-04-19T18:03:01.933Z,102277.06
2023-04-19T18:05:31.501Z,102274.94
2023-04-19T18:08:01.158Z,102275.41
2023-04-19T18:10:30.971Z,102278.75
2023-04-19T18:13:00.563Z,102278.09
2023-04-19T18:15:30.294Z,102281.44
2023-04-19T18:18:02.517Z,102276.13
2023-04-19T18:20:32.328Z,102283.28
2023-04-19T18:23:02.010Z,102275.44
2023-04-19T18:25:31.650Z,102274.09
2023-04-19T18:28:01.236Z,102275.53
2023-04-19T18:30:31.032Z,102283.66
2023-04-19T18:33:03.099Z,102278.09
2023-04-19T18:35:36.052Z,102275.78
2023-04-19T18:38:05.580Z,102281.59
2023-04-19T18:40:35.071Z,102276.88
2023-04-19T18:43:04.563Z,102282.69
2023-04-19T18:45:34.177Z,102279.78
2023-04-19T18:48:06.584Z,102282.41
2023-04-19T18:50:36.291Z,102280.78
2023-04-19T18:53:05.799Z,102279.81
2023-04-19T18:55:35.768Z,102282.25
2023-04-19T18:58:06.226Z,102284.47
2023-04-19T19:00:35.789Z,102285.13
2023-04-19T19:03:19.147Z,102282.22
2023-04-19T19:05:58.323Z,102288.00
2023-04-19T19:08:28.241Z,102292.47
2023-04-19T19:11:25.032Z,102283.94
2023-04-19T19:13:47.363Z,102289.94
2023-04-19T19:16:18.424Z,102289.94
2023-04-19T19:18:51.765Z,102283.03
2023-04-19T19:21:21.411Z,102286.88
2023-04-19T19:23:52.514Z,102285.88
2023-04-19T19:26:22.133Z,102277.03
2023-04-19T19:28:51.664Z,102271.53
2023-04-19T19:31:21.315Z,102276.91
2023-04-19T19:34:10.168Z,102270.00
2023-04-19T19:36:43.436Z,102266.41
2023-04-19T19:39:13.253Z,102271.28
2023-04-19T19:44:16.372Z,102270.31
2023-04-19T19:46:45.997Z,102265.69
2023-04-19T19:49:18.818Z,102272.38
2023-04-19T19:51:58.470Z,102273.66
2023-04-19T19:54:28.882Z,102287.41
2023-04-19T19:59:34.561Z,102283.41
2023-04-19T20:02:04.795Z,102299.81
2023-04-19T20:04:38.692Z,102304.72
2023-04-19T20:07:32.456Z,102297.53
2023-04-19T20:09:57.996Z,102294.59
2023-04-19T20:12:27.527Z,102297.53
2023-04-19T20:14:57.035Z,102293.03
2023-04-19T20:17:26.572Z,102293.16
2023-04-19T20:20:00.482Z,102281.84
2023-04-19T20:22:30.019Z,102282.50
2023-04-19T20:24:59.864Z,102263.13
2023-04-19T20:27:29.348Z,102268.16
2023-04-19T20:30:00.652Z,102260.69
2023-04-19T20:32:30.253Z,102252.59
2023-04-19T20:35:02.501Z,102264.09
2023-04-19T20:37:32.000Z,102246.91
2023-04-19T20:40:01.495Z,102247.19
2023-04-19T20:42:30.950Z,102259.72
2023-04-19T20:45:00.988Z,102253.50
2023-04-19T20:47:32.139Z,102245.50
2023-04-19T20:50:04.303Z,102250.66
2023-04-19T20:52:33.901Z,102253.47
2023-04-19T20:55:03.570Z,102251.13
2023-04-19T20:57:33.155Z,102248.81
2023-04-19T21:00:02.780Z,102246.25
2023-04-19T21:02:32.650Z,102236.38
2023-04-19T21:05:04.975Z,102237.03
2023-04-19T21:07:34.449Z,102229.59
2023-04-19T21:10:03.944Z,102227.25
2023-04-19T21:12:33.407Z,102225.94
2023-04-19T21:15:04.968Z,102230.59
2023-04-19T21:17:34.495Z,102220.69
2023-04-19T21:20:12.163Z,102209.88
2023-04-19T21:22:41.924Z,102188.78
2023-04-19T21:25:12.771Z,102198.28
2023-04-19T21:27:43.291Z,102181.63
2023-04-19T21:30:14.238Z,102183.78
2023-04-19T21:32:43.774Z,102190.94
2023-04-19T21:35:15.946Z,102182.44
2023-04-19T21:37:45.660Z,102182.81
2023-04-19T21:40:15.647Z,102162.47
2023-04-19T21:42:45.207Z,102164.66
2023-04-19T21:45:14.770Z,102163.94
2023-04-19T21:47:44.409Z,102159.41
2023-04-19T21:50:16.661Z,102143.84
2023-04-19T21:52:46.183Z,102147.47
2023-04-19T21:55:15.713Z,102138.50
2023-04-19T21:57:45.200Z,102137.75
2023-04-19T22:00:15.995Z,102128.69
2023-04-19T22:02:45.739Z,102089.38
2023-04-19T22:05:18.110Z,102117.31
2023-04-19T22:07:47.571Z,102103.44
2023-04-19T22:10:17.591Z,102104.56
2023-04-19T22:12:57.809Z,102106.38
2023-04-19T22:15:28.565Z,102109.28
2023-04-19T22:17:58.317Z,102097.88
2023-04-19T22:20:32.180Z,102103.09
2023-04-19T22:23:01.667Z,102091.16
2023-04-19T22:25:31.333Z,102099.41
2023-04-19T22:28:00.835Z,102083.13
2023-04-19T22:30:30.446Z,102071.25
2023-04-19T22:32:59.980Z,102076.28
2023-04-19T22:35:32.105Z,102067.91
2023-04-19T22:38:01.634Z,102076.41
2023-04-19T22:40:31.151Z,102071.50
2023-04-19T22:43:00.759Z,102071.16
2023-04-19T22:45:30.273Z,102071.50
2023-04-19T22:47:59.840Z,102062.75
2023-04-19T22:50:32.093Z,102024.13
2023-04-19T22:53:01.657Z,102048.38
2023-04-19T22:55:31.156Z,102051.16
2023-04-19T22:58:00.666Z,102056.09
2023-04-19T23:00:30.155Z,102033.50
2023-04-19T23:02:59.683Z,102036.84
2023-04-19T23:05:31.996Z,102030.13
2023-04-19T23:08:02.797Z,102028.81
2023-04-19T23:10:32.943Z,102031.72
2023-04-19T23:13:02.449Z,102030.81
2023-04-19T23:15:33.353Z,102012.50
2023-04-19T23:18:04.002Z,101997.84
2023-04-19T23:20:36.645Z,102006.34
2023-04-19T23:23:08.065Z,102008.91
2023-04-19T23:25:37.631Z,102003.66
2023-04-19T23:28:07.155Z,102005.13
2023-04-19T23:30:36.660Z,101994.59
2023-04-19T23:33:06.514Z,101998.75
2023-04-19T23:35:38.683Z,101996.19
2023-04-19T23:38:08.262Z,101991.69
2023-04-19T23:40:37.770Z,101995.72
2023-04-19T23:43:07.321Z,101986.44
2023-04-19T23:45:36.836Z,101988.81
2023-04-19T23:48:06.903Z,101999.50
2023-04-19T23:50:39.046Z,102001.09
2023-04-19T23:53:08.596Z,101994.16
2023-04-19T23:55:38.191Z,101984.09
2023-04-19T23:58:07.738Z,101987.22
